Time;durP1;ratioP1;P1;durP2;ratioP2;P2;SDS_P1;SDS_P2;PMS_P1;PMS_P2;Temp;Humidity;BMP_temperature;BMP_pressure;BME280_temperature;BME280_humidity;BME280_pressure;Samples;Min_cycle;Max_cycle;Signal;HPM_P1;HPM_P2
2023/01/27 00:02:45;;;;;;;148.73;133.68;;;1.30;99.90;;;;;;6236983;28;20057;-81
2023/01/27 00:05:47;;;;;;;46.88;42.13;;;1.30;99.90;;;;;;6243573;28;20038;-81
2023/01/27 00:08:51;;;;;;;30.58;26.83;;;1.30;99.90;;;;;;6233665;28;20049;-80
2023/01/27 00:15:25;;;;;;;30.95;17.63;;;1.30;99.90;;;;;;6206132;28;20208;-81
2023/01/27 00:18:27;;;;;;;21.85;13.50;;;1.30;99.90;;;;;;6230821;28;20053;-81
2023/01/27 00:24:47;;;;;;;26.98;14.85;;;1.30;99.90;;;;;;6232095;28;20046;-80
2023/01/27 00:27:50;;;;;;;21.98;13.80;;;1.20;99.90;;;;;;6233803;28;20045;-80
2023/01/27 00:30:52;;;;;;;20.67;13.77;;;1.20;99.90;;;;;;6233929;28;20156;-81
2023/01/27 00:33:55;;;;;;;21.35;14.27;;;1.20;99.90;;;;;;6231977;28;20125;-82
2023/01/27 00:36:56;;;;;;;26.60;14.70;;;1.20;99.90;;;;;;6228036;28;20385;-80
2023/01/27 00:39:58;;;;;;;23.70;15.55;;;1.20;99.90;;;;;;6226137;28;20507;-80
2023/01/27 00:43:01;;;;;;;19.70;14.73;;;1.20;99.90;;;;;;6227525;28;20630;-80
2023/01/27 00:46:03;;;;;;;20.02;13.98;;;1.20;99.90;;;;;;6230261;28;20085;-80
2023/01/27 00:49:04;;;;;;;21.50;13.57;;;1.20;99.90;;;;;;6227947;28;20049;-80
2023/01/27 00:52:06;;;;;;;20.40;13.40;;;1.30;99.90;;;;;;6228071;28;20042;-81
2023/01/27 00:55:09;;;;;;;23.53;14.50;;;1.20;99.90;;;;;;6226545;28;20045;-83
2023/01/27 00:58:12;;;;;;;21.13;13.77;;;1.20;99.90;;;;;;6228852;28;20054;-80
2023/01/27 01:01:16;;;;;;;24.33;14.17;;;1.20;99.90;;;;;;6243833;28;20153;-81
2023/01/27 01:04:18;;;;;;;24.77;14.27;;;1.20;99.90;;;;;;6247790;28;20046;-81
2023/01/27 01:07:19;;;;;;;20.47;13.83;;;1.20;99.90;;;;;;6239567;28;20049;-80
2023/01/27 01:10:21;;;;;;;25.13;16.83;;;1.20;99.90;;;;;;6237643;28;20053;-81
2023/01/27 01:13:26;;;;;;;22.13;15.40;;;1.20;99.90;;;;;;6236283;28;20547;-80
2023/01/27 01:16:28;;;;;;;25.50;16.73;;;1.20;99.90;;;;;;6234004;28;20045;-81
2023/01/27 01:19:30;;;;;;;26.73;15.37;;;1.20;99.90;;;;;;6235091;28;20057;-80
2023/01/27 01:22:31;;;;;;;22.90;13.38;;;1.10;99.90;;;;;;6233835;28;20054;-79
2023/01/27 01:25:33;;;;;;;19.60;13.83;;;1.10;99.90;;;;;;6235740;28;20065;-81
2023/01/27 01:28:36;;;;;;;23.13;15.00;;;1.10;99.90;;;;;;6228227;28;20046;-81
2023/01/27 01:31:38;;;;;;;23.27;16.30;;;1.10;99.90;;;;;;6226608;28;20416;-80
2023/01/27 01:34:39;;;;;;;27.17;15.63;;;1.10;99.90;;;;;;6226153;28;20050;-80
2023/01/27 01:37:41;;;;;;;26.30;14.48;;;1.10;99.90;;;;;;6230308;28;20050;-83
2023/01/27 01:40:44;;;;;;;29.33;15.03;;;1.10;99.90;;;;;;6229948;28;20076;-79
2023/01/27 01:43:48;;;;;;;24.63;16.10;;;1.10;99.90;;;;;;6227004;28;20397;-81
2023/01/27 01:46:49;;;;;;;27.57;17.03;;;1.10;99.90;;;;;;6227877;28;20110;-82
2023/01/27 01:49:51;;;;;;;25.67;14.90;;;1.10;99.90;;;;;;6231374;28;20060;-79
2023/01/27 01:52:54;;;;;;;24.97;16.83;;;1.10;99.90;;;;;;6236334;28;20059;-79
2023/01/27 01:55:58;;;;;;;27.43;16.50;;;1.10;99.90;;;;;;6255711;28;20498;-81
2023/01/27 01:59:05;;;;;;;25.50;16.10;;;1.10;99.90;;;;;;6254373;28;20066;-82
2023/01/27 02:02:12;;;;;;;20.85;12.43;;;1.10;99.90;;;;;;6255342;28;20057;-82
2023/01/27 02:05:17;;;;;;;25.90;15.93;;;1.10;99.90;;;;;;6205698;28;20046;-79
2023/01/27 02:08:24;;;;;;;24.38;15.80;;;1.10;99.90;;;;;;6208285;28;20042;-81
2023/01/27 02:11:26;;;;;;;28.17;17.20;;;1.10;99.90;;;;;;6208498;28;20046;-81
2023/01/27 02:14:29;;;;;;;27.00;17.47;;;1.10;99.90;;;;;;6208776;28;20054;-80
2023/01/27 02:17:30;;;;;;;28.77;17.20;;;1.10;99.90;;;;;;6207441;28;20053;-80
2023/01/27 02:20:39;;;;;;;25.17;15.67;;;1.10;99.90;;;;;;6209019;28;20412;-80
2023/01/27 02:23:49;;;;;;;29.87;16.40;;;1.10;99.90;;;;;;6228653;28;20042;-80
2023/01/27 02:26:52;;;;;;;29.92;17.40;;;1.10;99.90;;;;;;6231323;28;20052;-79
2023/01/27 02:29:54;;;;;;;24.93;16.73;;;1.10;99.90;;;;;;6230871;28;20065;-81
2023/01/27 02:32:55;;;;;;;29.23;18.00;;;1.10;99.90;;;;;;6230991;28;20057;-80
2023/01/27 02:36:02;;;;;;;29.37;18.10;;;1.10;99.90;;;;;;6233885;28;20038;-81
2023/01/27 02:39:07;;;;;;;28.02;17.45;;;1.10;99.90;;;;;;6231308;28;20527;-80
2023/01/27 02:42:14;;;;;;;27.27;16.63;;;1.10;99.90;;;;;;6240319;28;20085;-80
2023/01/27 02:45:15;;;;;;;29.63;18.63;;;1.10;99.90;;;;;;6238868;28;20048;-79
2023/01/27 02:48:17;;;;;;;34.95;19.55;;;1.00;99.90;;;;;;6239199;28;20056;-80
2023/01/27 02:51:19;;;;;;;30.98;20.15;;;1.00;99.90;;;;;;6236445;28;20061;-79
2023/01/27 02:54:21;;;;;;;25.10;15.30;;;1.00;99.90;;;;;;6238450;28;20045;-79
2023/01/27 02:57:24;;;;;;;27.20;17.88;;;1.00;99.90;;;;;;6238507;28;20038;-79
2023/01/27 03:00:26;;;;;;;31.35;17.25;;;1.00;99.90;;;;;;6237625;28;20393;-79
2023/01/27 03:03:27;;;;;;;24.42;17.02;;;1.00;99.90;;;;;;6239974;28;20123;-79
2023/01/27 03:06:29;;;;;;;34.35;19.40;;;1.00;99.90;;;;;;6238250;28;20518;-79
2023/01/27 03:09:31;;;;;;;31.40;18.88;;;1.00;99.90;;;;;;6239021;28;20500;-79
2023/01/27 03:12:35;;;;;;;28.15;18.17;;;0.90;99.90;;;;;;6234997;28;20076;-79
2023/01/27 03:18:56;;;;;;;30.47;17.47;;;1.00;99.90;;;;;;6230329;28;20121;-81
2023/01/27 03:22:00;;;;;;;29.88;17.35;;;0.90;99.90;;;;;;6230585;28;20042;-80
2023/01/27 03:25:02;;;;;;;26.10;18.20;;;1.00;99.90;;;;;;6229575;28;20042;-81
2023/01/27 03:28:05;;;;;;;28.33;18.45;;;1.00;99.90;;;;;;6226849;28;20053;-80
2023/01/27 03:31:18;;;;;;;32.08;19.55;;;1.00;99.90;;;;;;6227294;28;20690;-81
2023/01/27 03:34:19;;;;;;;29.60;18.63;;;1.00;99.90;;;;;;6227433;28;20056;-80
2023/01/27 03:47:22;;;;;;;31.50;18.65;;;1.10;99.90;;;;;;6227122;28;20045;-80
2023/01/27 03:50:30;;;;;;;32.13;21.75;;;1.10;99.90;;;;;;6224107;28;20132;-79
2023/01/27 03:53:31;;;;;;;42.53;21.25;;;1.10;99.90;;;;;;6223883;28;20054;-79
2023/01/27 03:56:33;;;;;;;28.73;19.65;;;1.10;99.90;;;;;;6223106;28;20178;-79
2023/01/27 03:59:36;;;;;;;33.53;19.73;;;1.10;99.90;;;;;;6222499;28;20054;-79
2023/01/27 04:09:20;;;;;;;33.40;19.92;;;1.20;99.90;;;;;;6222080;28;20507;-79
2023/01/27 04:12:21;;;;;;;33.25;19.90;;;1.20;99.90;;;;;;6223076;28;20053;-79
2023/01/27 04:15:24;;;;;;;31.75;19.02;;;1.20;99.90;;;;;;6223208;28;20046;-79
2023/01/27 04:18:26;;;;;;;31.58;17.80;;;1.20;99.90;;;;;;6222651;28;20050;-79
2023/01/27 04:21:28;;;;;;;33.50;19.75;;;1.20;99.90;;;;;;6223390;28;20488;-79
2023/01/27 04:24:30;;;;;;;28.35;19.10;;;1.20;99.90;;;;;;6221560;28;20188;-80
2023/01/27 04:27:32;;;;;;;49.80;25.42;;;1.20;99.90;;;;;;6221379;28;20046;-79
2023/01/27 04:30:35;;;;;;;32.83;20.70;;;1.20;99.90;;;;;;6222795;28;20046;-79
2023/01/27 04:33:36;;;;;;;32.35;19.85;;;1.20;99.90;;;;;;6222936;28;20046;-78
2023/01/27 04:36:38;;;;;;;29.13;18.48;;;1.20;99.90;;;;;;6222755;28;20038;-79
2023/01/27 04:39:40;;;;;;;31.08;17.50;;;1.20;99.90;;;;;;6222267;28;20050;-79
2023/01/27 04:42:42;;;;;;;31.20;20.58;;;1.20;99.90;;;;;;6222309;28;20046;-79
2023/01/27 04:45:45;;;;;;;27.45;17.88;;;1.20;99.90;;;;;;6222386;28;20412;-79
2023/01/27 04:48:46;;;;;;;33.40;22.52;;;1.20;99.90;;;;;;6222472;28;20530;-81
2023/01/27 04:51:48;;;;;;;32.30;17.63;;;1.10;99.90;;;;;;6222943;28;20046;-79
2023/01/27 04:54:50;;;;;;;29.60;19.02;;;1.20;99.90;;;;;;6222663;28;20811;-79
2023/01/27 04:57:52;;;;;;;26.83;17.92;;;1.20;99.90;;;;;;6222956;28;20061;-81
2023/01/27 05:00:55;;;;;;;31.23;19.77;;;1.20;99.90;;;;;;6223450;28;20419;-79
2023/01/27 05:03:57;;;;;;;34.00;18.33;;;1.20;99.90;;;;;;6222083;28;20045;-79
2023/01/27 05:06:59;;;;;;;29.10;17.17;;;1.20;99.90;;;;;;6222923;28;20415;-79
2023/01/27 05:10:01;;;;;;;33.75;20.50;;;1.10;99.90;;;;;;6223981;28;20156;-79
2023/01/27 05:13:03;;;;;;;30.33;17.35;;;1.10;99.90;;;;;;6223078;28;20507;-78
2023/01/27 05:16:12;;;;;;;34.53;20.95;;;1.10;99.90;;;;;;6223468;28;20714;-79
2023/01/27 05:19:14;;;;;;;33.60;18.17;;;1.20;99.90;;;;;;6222500;28;20432;-80
2023/01/27 05:22:15;;;;;;;32.05;20.25;;;1.20;99.90;;;;;;6224013;28;20050;-80
2023/01/27 05:25:17;;;;;;;30.67;18.13;;;1.20;99.90;;;;;;6223024;28;20400;-81
2023/01/27 05:28:19;;;;;;;34.77;20.43;;;1.20;99.90;;;;;;6222949;28;20054;-80
2023/01/27 05:31:23;;;;;;;36.17;18.90;;;1.20;99.90;;;;;;6223503;28;20511;-79
2023/01/27 05:34:26;;;;;;;31.33;17.77;;;1.20;99.90;;;;;;6223712;28;20058;-79
2023/01/27 05:37:27;;;;;;;29.05;18.48;;;1.20;99.90;;;;;;6233061;28;20053;-80
2023/01/27 05:40:30;;;;;;;28.70;16.50;;;1.20;99.90;;;;;;6249597;28;20049;-79
2023/01/27 05:43:34;;;;;;;33.28;20.85;;;1.20;99.90;;;;;;6253685;28;20049;-79
2023/01/27 05:46:39;;;;;;;30.10;20.08;;;1.20;99.90;;;;;;6253303;28;20068;-79
2023/01/27 05:49:40;;;;;;;36.28;19.98;;;1.20;99.90;;;;;;6253487;28;20050;-79
2023/01/27 05:52:42;;;;;;;43.70;22.70;;;1.20;99.90;;;;;;6253400;28;20426;-80
2023/01/27 05:55:44;;;;;;;37.03;20.05;;;1.20;99.90;;;;;;6252586;28;20045;-80
2023/01/27 05:58:46;;;;;;;36.70;20.05;;;1.20;99.90;;;;;;6253793;28;20418;-80
2023/01/27 06:01:49;;;;;;;37.63;21.50;;;1.20;99.90;;;;;;6262476;28;20049;-79
2023/01/27 06:04:50;;;;;;;30.80;17.42;;;1.20;99.90;;;;;;6240532;28;20050;-80
2023/01/27 06:07:52;;;;;;;39.08;20.10;;;1.20;99.90;;;;;;6229139;28;20057;-81
2023/01/27 06:10:54;;;;;;;47.17;26.33;;;1.20;99.90;;;;;;6229267;28;20052;-80
2023/01/27 06:13:56;;;;;;;44.90;22.83;;;1.20;99.90;;;;;;6228974;28;20462;-81
2023/01/27 06:16:59;;;;;;;46.70;22.90;;;1.20;99.90;;;;;;6228807;28;20049;-80
2023/01/27 06:20:01;;;;;;;39.33;21.10;;;1.30;99.90;;;;;;6227899;28;20070;-81
2023/01/27 06:23:03;;;;;;;40.30;21.73;;;1.30;99.90;;;;;;6229311;28;20052;-81
2023/01/27 06:26:08;;;;;;;47.25;22.58;;;1.20;99.90;;;;;;6229517;28;20073;-81
2023/01/27 06:29:09;;;;;;;46.90;23.60;;;1.20;99.90;;;;;;6227664;28;20053;-80
2023/01/27 06:32:12;;;;;;;36.65;19.67;;;1.30;99.90;;;;;;6232667;28;20064;-80
2023/01/27 06:35:14;;;;;;;48.65;24.73;;;1.30;99.90;;;;;;6232790;28;20060;-79
2023/01/27 06:38:16;;;;;;;40.35;22.15;;;1.30;99.90;;;;;;6231045;28;20050;-79
2023/01/27 06:41:18;;;;;;;42.83;23.20;;;1.30;99.90;;;;;;6229901;28;20057;-80
2023/01/27 06:44:19;;;;;;;47.45;24.23;;;1.30;99.90;;;;;;6230341;28;20050;-79
2023/01/27 06:47:22;;;;;;;45.15;24.83;;;1.40;99.90;;;;;;6230535;28;20058;-80
2023/01/27 06:50:25;;;;;;;40.92;22.48;;;1.40;99.90;;;;;;6231685;28;20377;-80
2023/01/27 06:53:27;;;;;;;59.40;28.25;;;1.40;99.90;;;;;;6228953;28;20045;-79
2023/01/27 06:56:29;;;;;;;59.03;27.88;;;1.40;99.90;;;;;;6229259;28;20077;-80
2023/01/27 06:59:30;;;;;;;47.70;24.25;;;1.30;99.90;;;;;;6228539;28;20050;-79
2023/01/27 07:02:33;;;;;;;48.30;24.52;;;1.40;99.90;;;;;;6227789;28;20054;-79
2023/01/27 07:05:35;;;;;;;52.47;26.52;;;1.40;99.90;;;;;;6228339;28;20436;-79
2023/01/27 07:08:37;;;;;;;57.30;31.17;;;1.40;99.90;;;;;;6225553;28;20049;-79
2023/01/27 07:11:38;;;;;;;47.47;27.40;;;1.40;99.90;;;;;;6227999;28;20037;-79
2023/01/27 07:14:40;;;;;;;60.78;29.08;;;1.40;99.90;;;;;;6229549;28;20057;-80
2023/01/27 07:17:43;;;;;;;42.53;23.67;;;1.40;99.90;;;;;;6228794;28;20049;-79
2023/01/27 07:20:45;;;;;;;43.45;25.67;;;1.40;99.90;;;;;;6228345;28;20042;-80
2023/01/27 07:23:46;;;;;;;52.75;30.25;;;1.40;99.90;;;;;;6226692;28;20053;-79
2023/01/27 07:26:48;;;;;;;42.55;20.70;;;1.40;99.90;;;;;;6225672;28;20088;-79
2023/01/27 07:29:50;;;;;;;44.80;22.35;;;1.40;99.90;;;;;;6224888;28;20053;-79
2023/01/27 07:32:54;;;;;;;40.30;20.45;;;1.40;99.90;;;;;;6227246;28;20045;-79
2023/01/27 07:35:55;;;;;;;46.97;23.95;;;1.40;99.90;;;;;;6228677;28;20049;-79
2023/01/27 07:38:57;;;;;;;53.72;26.58;;;1.40;99.90;;;;;;6225675;28;20053;-80
2023/01/27 07:42:00;;;;;;;39.55;19.88;;;1.50;99.90;;;;;;6226094;28;20071;-79
2023/01/27 07:45:02;;;;;;;40.47;23.27;;;1.50;99.90;;;;;;6226495;28;20042;-79
2023/01/27 07:48:06;;;;;;;43.97;21.48;;;1.50;99.90;;;;;;6225752;28;20050;-79
2023/01/27 07:51:11;;;;;;;34.20;22.25;;;1.50;99.90;;;;;;6225926;28;20057;-79
2023/01/27 07:54:13;;;;;;;38.75;18.98;;;1.50;99.90;;;;;;6226015;28;20061;-79
2023/01/27 07:57:15;;;;;;;30.35;17.63;;;1.50;99.90;;;;;;6224737;28;20045;-79
2023/01/27 08:00:18;;;;;;;33.97;16.10;;;1.50;99.90;;;;;;6227819;28;20054;-79
2023/01/27 08:03:26;;;;;;;31.90;18.08;;;1.40;99.90;;;;;;6226733;28;20053;-79
2023/01/27 08:06:27;;;;;;;27.50;16.30;;;1.50;99.90;;;;;;6229913;28;20139;-80
2023/01/27 08:09:29;;;;;;;26.98;14.20;;;1.50;99.90;;;;;;6230242;28;20046;-79
2023/01/27 08:12:31;;;;;;;34.17;17.27;;;1.50;99.90;;;;;;6233373;28;20050;-79
2023/01/27 08:15:32;;;;;;;32.58;15.75;;;1.50;99.90;;;;;;6232802;28;20527;-79
2023/01/27 08:18:35;;;;;;;24.70;14.18;;;1.50;99.90;;;;;;6233837;28;20041;-79
2023/01/27 08:21:37;;;;;;;24.65;13.18;;;1.60;99.90;;;;;;6232945;28;20046;-79
2023/01/27 08:24:39;;;;;;;25.55;14.10;;;1.50;99.90;;;;;;6235841;28;20046;-79
2023/01/27 08:27:40;;;;;;;24.90;14.43;;;1.50;99.90;;;;;;6226637;28;20053;-80
2023/01/27 08:30:42;;;;;;;21.35;10.23;;;1.60;99.90;;;;;;6229271;28;20431;-80
2023/01/27 08:33:50;;;;;;;20.02;9.95;;;1.60;99.90;;;;;;6228742;28;20373;-81
2023/01/27 08:36:52;;;;;;;16.83;11.20;;;1.60;99.90;;;;;;6228964;28;20060;-80
2023/01/27 08:39:54;;;;;;;15.88;11.85;;;1.60;99.90;;;;;;6227810;28;20053;-79
2023/01/27 08:42:55;;;;;;;23.10;19.15;;;1.60;99.90;;;;;;6229443;28;20045;-80
2023/01/27 08:45:59;;;;;;;17.85;15.05;;;1.60;99.90;;;;;;6229537;28;20053;-79
2023/01/27 08:49:03;;;;;;;20.80;14.23;;;1.60;99.90;;;;;;6227462;28;20045;-79
2023/01/27 08:52:04;;;;;;;17.95;11.55;;;1.70;99.90;;;;;;6228394;28;20054;-80
2023/01/27 08:55:06;;;;;;;17.80;11.88;;;1.70;99.90;;;;;;6228114;28;20056;-79
2023/01/27 08:58:08;;;;;;;23.52;10.93;;;1.70;99.90;;;;;;6231758;28;20053;-79
2023/01/27 09:01:10;;;;;;;19.60;11.98;;;1.70;99.90;;;;;;6229117;28;20050;-80
2023/01/27 09:04:13;;;;;;;19.92;11.80;;;1.80;99.90;;;;;;6230505;28;20694;-79
2023/01/27 09:07:15;;;;;;;16.98;8.45;;;1.90;99.90;;;;;;6229070;28;20561;-79
2023/01/27 09:10:17;;;;;;;15.98;9.65;;;1.90;99.90;;;;;;6231403;28;20064;-80
2023/01/27 09:13:21;;;;;;;20.60;10.70;;;2.00;99.90;;;;;;6226180;28;20050;-80
2023/01/27 09:16:22;;;;;;;16.73;10.50;;;2.10;99.90;;;;;;6172367;28;20168;-80
2023/01/27 09:19:25;;;;;;;16.98;9.13;;;2.10;99.90;;;;;;6231500;28;20423;-80
2023/01/27 09:22:27;;;;;;;16.40;10.77;;;2.20;99.90;;;;;;6222591;28;20045;-79
2023/01/27 09:25:29;;;;;;;13.93;9.02;;;2.30;99.90;;;;;;6239539;28;20109;-80
2023/01/27 09:28:31;;;;;;;15.35;8.30;;;2.30;99.90;;;;;;6231896;28;20144;-79
2023/01/27 09:31:33;;;;;;;10.95;8.05;;;2.40;99.90;;;;;;6233357;28;20049;-80
2023/01/27 09:34:36;;;;;;;13.65;9.20;;;2.30;99.90;;;;;;6233761;28;20049;-80
2023/01/27 09:37:41;;;;;;;12.55;8.07;;;2.40;99.90;;;;;;6236750;28;20042;-79
2023/01/27 09:40:58;;;;;;;13.88;9.38;;;2.50;99.90;;;;;;6232788;28;20065;-79
2023/01/27 09:44:24;;;;;;;10.82;7.45;;;2.50;99.90;;;;;;6246361;28;20052;-80
2023/01/27 09:47:51;;;;;;;14.38;7.97;;;2.60;99.90;;;;;;6255820;28;20048;-80
2023/01/27 09:51:01;;;;;;;10.32;7.07;;;2.60;99.90;;;;;;6247005;28;20599;-80
2023/01/27 09:54:32;;;;;;;11.18;6.38;;;2.60;99.90;;;;;;6237727;28;20450;-80
2023/01/27 09:57:44;;;;;;;10.90;5.90;;;2.70;99.90;;;;;;6218284;28;20518;-79
2023/01/27 10:00:54;;;;;;;12.57;6.82;;;2.70;99.90;;;;;;6226734;28;20053;-79
2023/01/27 10:04:13;;;;;;;9.73;6.57;;;2.80;99.90;;;;;;6232227;28;20049;-79
2023/01/27 10:07:33;;;;;;;9.65;5.70;;;2.90;99.90;;;;;;6226208;28;20053;-80
2023/01/27 10:10:48;;;;;;;8.85;5.78;;;2.90;99.90;;;;;;6229586;28;20060;-81
2023/01/27 10:14:05;;;;;;;12.40;8.63;;;3.00;99.90;;;;;;6224354;28;20068;-79
2023/01/27 10:17:23;;;;;;;9.95;6.88;;;3.00;99.90;;;;;;6222638;28;20049;-79
2023/01/27 10:20:32;;;;;;;10.48;5.32;;;3.00;99.90;;;;;;6223298;28;20045;-79
2023/01/27 10:23:50;;;;;;;8.05;5.70;;;2.90;99.90;;;;;;6230119;28;20046;-80
2023/01/27 10:26:56;;;;;;;11.77;7.00;;;2.90;99.90;;;;;;6224527;28;20136;-79
2023/01/27 10:30:01;;;;;;;10.88;6.07;;;2.90;99.90;;;;;;6230187;28;20076;-80
2023/01/27 10:33:16;;;;;;;10.50;5.97;;;2.90;99.90;;;;;;6233196;28;20045;-79
2023/01/27 10:36:26;;;;;;;6.75;5.00;;;2.90;99.90;;;;;;6234228;28;20068;-79
2023/01/27 10:39:38;;;;;;;8.25;5.90;;;2.90;99.90;;;;;;6231449;28;20057;-79
2023/01/27 10:42:49;;;;;;;7.97;5.63;;;2.90;99.90;;;;;;6230603;28;20045;-80
2023/01/27 10:45:57;;;;;;;6.43;4.00;;;2.90;99.90;;;;;;6230653;28;20046;-79
2023/01/27 10:49:06;;;;;;;7.40;5.60;;;3.00;99.90;;;;;;6230408;28;20053;-79
2023/01/27 10:52:13;;;;;;;6.97;5.13;;;2.90;99.90;;;;;;6229068;28;20057;-79
2023/01/27 10:55:20;;;;;;;8.48;4.72;;;3.00;99.90;;;;;;6234821;28;20061;-80
2023/01/27 10:58:34;;;;;;;9.43;4.32;;;3.00;99.90;;;;;;6232664;28;20050;-78
2023/01/27 11:01:39;;;;;;;6.55;5.07;;;3.00;99.90;;;;;;6236938;28;20054;-78
2023/01/27 11:04:44;;;;;;;8.98;4.38;;;3.00;99.90;;;;;;6232120;28;20141;-80
2023/01/27 11:07:50;;;;;;;6.22;4.22;;;3.00;99.90;;;;;;6228033;28;20042;-80
2023/01/27 11:14:19;;;;;;;8.93;5.97;;;3.00;99.90;;;;;;6228703;28;20054;-79
2023/01/27 11:17:28;;;;;;;6.43;5.43;;;3.00;99.90;;;;;;6227872;28;20116;-79
2023/01/27 11:20:33;;;;;;;11.70;5.47;;;3.00;99.90;;;;;;6226398;28;20042;-80
2023/01/27 11:23:40;;;;;;;7.28;4.93;;;3.00;99.90;;;;;;6237217;28;20046;-79
2023/01/27 11:26:46;;;;;;;7.95;4.60;;;3.10;99.90;;;;;;6225374;28;20056;-80
2023/01/27 11:29:54;;;;;;;9.27;5.65;;;3.10;99.90;;;;;;6229963;28;20049;-80
2023/01/27 11:33:02;;;;;;;10.68;6.13;;;3.00;99.90;;;;;;6227839;28;20133;-80
2023/01/27 11:36:03;;;;;;;;;;;3.00;99.90;;;;;;6227356;28;20057;-80
2023/01/27 11:39:05;;;;;;;9.05;4.93;;;3.00;99.90;;;;;;6225067;28;19921;-79
2023/01/27 11:53:59;;;;;;;10.05;6.05;;;3.10;99.90;;;;;;6174521;28;20136;-79
2023/01/27 11:57:46;;;;;;;9.60;5.32;;;3.10;99.90;;;;;;6196062;28;20057;-82
2023/01/27 12:05:16;;;;;;;8.43;5.03;;;3.10;99.90;;;;;;6176948;28;20058;-78
2023/01/27 12:08:42;;;;;;;7.60;4.90;;;3.10;99.90;;;;;;6175847;28;20099;-79
2023/01/27 12:11:44;;;;;;;6.40;4.50;;;3.10;99.90;;;;;;6211619;28;20049;-79
2023/01/27 12:14:54;;;;;;;7.68;4.65;;;3.00;99.90;;;;;;6218765;28;20119;-79
2023/01/27 12:18:00;;;;;;;6.95;4.97;;;3.10;99.90;;;;;;6239145;28;20650;-80
2023/01/27 12:21:04;;;;;;;5.63;4.35;;;3.00;99.90;;;;;;6226937;28;20053;-80
2023/01/27 12:24:21;;;;;;;6.95;5.50;;;3.00;99.90;;;;;;6235562;28;20042;-80
2023/01/27 12:27:31;;;;;;;6.68;5.03;;;3.10;99.90;;;;;;6201723;28;20471;-80
2023/01/27 12:30:40;;;;;;;7.85;4.90;;;3.10;99.90;;;;;;6204611;28;20435;-80
2023/01/27 12:33:46;;;;;;;7.13;5.15;;;3.00;99.90;;;;;;6205622;28;20065;-78
2023/01/27 12:36:49;;;;;;;5.70;4.50;;;2.90;99.90;;;;;;6206509;28;20072;-80
2023/01/27 12:39:57;;;;;;;7.05;5.28;;;2.90;99.90;;;;;;6205919;28;20054;-79
2023/01/27 12:43:13;;;;;;;7.70;4.90;;;3.00;99.90;;;;;;6207875;28;20046;-80
2023/01/27 12:46:23;;;;;;;7.95;4.90;;;2.90;99.90;;;;;;6207610;28;20082;-79
2023/01/27 12:49:31;;;;;;;7.72;5.95;;;2.90;99.90;;;;;;6202352;28;20056;-79
2023/01/27 12:52:33;;;;;;;6.72;5.15;;;2.90;99.90;;;;;;6210423;28;20052;-79
2023/01/27 12:55:38;;;;;;;6.88;4.22;;;2.90;99.90;;;;;;6226790;28;20074;-79
2023/01/27 12:58:42;;;;;;;5.60;4.13;;;2.90;99.90;;;;;;6225674;28;20053;-78
2023/01/27 13:01:56;;;;;;;9.45;5.05;;;3.00;99.90;;;;;;6227708;28;20053;-78
2023/01/27 13:05:02;;;;;;;8.68;5.50;;;2.90;99.90;;;;;;6227660;28;20057;-80
2023/01/27 13:08:05;;;;;;;6.88;4.55;;;2.90;99.90;;;;;;6230941;28;20728;-80
2023/01/27 13:11:08;;;;;;;7.38;5.28;;;3.00;99.90;;;;;;6230498;28;20069;-78
2023/01/27 13:14:17;;;;;;;7.47;5.10;;;3.00;99.90;;;;;;6229840;28;20053;-80
2023/01/27 13:17:30;;;;;;;4.80;4.05;;;3.00;99.90;;;;;;6228534;28;20735;-80
2023/01/27 13:20:40;;;;;;;6.13;3.97;;;3.10;99.90;;;;;;6226675;28;20049;-80
2023/01/27 13:23:53;;;;;;;8.95;4.45;;;3.20;99.90;;;;;;6236712;28;20046;-80
2023/01/27 13:26:56;;;;;;;6.30;4.40;;;3.30;99.90;;;;;;6223518;28;20057;-79
2023/01/27 13:30:03;;;;;;;9.60;6.63;;;3.20;99.90;;;;;;6240647;28;20491;-80
2023/01/27 13:33:22;;;;;;;9.20;6.35;;;3.20;99.90;;;;;;6225321;28;20145;-79
2023/01/27 13:36:33;;;;;;;6.57;4.75;;;3.30;99.90;;;;;;6225106;28;20050;-78
2023/01/27 13:39:52;;;;;;;5.20;3.72;;;3.30;99.90;;;;;;6228953;28;20500;-80
2023/01/27 13:43:00;;;;;;;7.18;4.13;;;3.30;99.90;;;;;;6224826;28;20061;-79
2023/01/27 13:46:08;;;;;;;7.32;4.97;;;3.30;99.90;;;;;;6223670;28;20096;-78
2023/01/27 13:49:20;;;;;;;7.78;4.15;;;3.30;99.90;;;;;;6222318;28;20049;-79
2023/01/27 13:52:24;;;;;;;5.03;3.50;;;3.40;99.90;;;;;;6225231;28;20078;-79
2023/01/27 13:55:45;;;;;;;6.30;4.53;;;3.40;99.90;;;;;;6228946;28;20046;-79
2023/01/27 13:58:56;;;;;;;4.82;4.32;;;3.40;99.90;;;;;;6223408;28;20046;-80
2023/01/27 14:02:12;;;;;;;5.63;4.10;;;3.30;99.90;;;;;;6227554;28;20669;-79
2023/01/27 14:05:30;;;;;;;5.22;4.25;;;3.30;99.90;;;;;;6227827;28;20077;-79
2023/01/27 14:08:49;;;;;;;5.28;4.22;;;3.40;99.90;;;;;;6228289;28;20499;-80
2023/01/27 14:11:56;;;;;;;5.25;4.07;;;3.40;99.90;;;;;;6228508;28;20041;-79
2023/01/27 14:15:08;;;;;;;6.70;4.87;;;3.40;99.90;;;;;;6227699;28;20054;-79
2023/01/27 14:18:16;;;;;;;5.50;4.60;;;3.30;99.90;;;;;;6227576;28;20061;-79
2023/01/27 14:21:26;;;;;;;6.47;4.07;;;3.40;99.90;;;;;;6226853;28;20443;-79
2023/01/27 14:24:39;;;;;;;5.65;4.38;;;3.40;99.90;;;;;;6234984;28;20050;-79
2023/01/27 14:27:45;;;;;;;6.30;4.95;;;3.50;99.90;;;;;;6251688;28;20088;-79
2023/01/27 14:30:54;;;;;;;14.10;8.02;;;3.40;99.90;;;;;;6252196;28;20068;-79
2023/01/27 14:34:03;;;;;;;49.88;20.58;;;3.40;99.90;;;;;;6251678;28;20057;-79
2023/01/27 14:37:15;;;;;;;9.48;6.07;;;3.30;99.90;;;;;;6252329;28;20045;-81
2023/01/27 14:40:22;;;;;;;7.72;5.25;;;3.30;99.90;;;;;;6251948;28;20046;-79
2023/01/27 14:43:35;;;;;;;7.60;4.63;;;3.30;99.90;;;;;;6251407;28;20075;-79
2023/01/27 14:46:55;;;;;;;13.77;12.32;;;3.30;99.90;;;;;;6251031;28;20471;-79
2023/01/27 14:50:13;;;;;;;7.05;5.32;;;3.20;99.90;;;;;;6251206;28;20049;-79
2023/01/27 14:53:34;;;;;;;7.07;5.05;;;3.20;99.90;;;;;;6249920;28;20175;-79
2023/01/27 14:56:45;;;;;;;6.68;4.85;;;3.20;99.90;;;;;;6225864;28;20050;-79
2023/01/27 14:59:56;;;;;;;7.30;5.35;;;3.20;99.90;;;;;;6225575;28;20049;-79
2023/01/27 15:03:11;;;;;;;7.68;6.57;;;3.20;99.90;;;;;;6227378;28;20054;-79
2023/01/27 15:06:18;;;;;;;7.72;5.45;;;3.20;99.90;;;;;;6227792;28;20054;-79
2023/01/27 15:09:34;;;;;;;7.97;5.50;;;3.20;99.90;;;;;;6213658;28;20046;-79
2023/01/27 15:13:04;;;;;;;6.65;5.25;;;3.20;99.90;;;;;;6222070;28;20049;-79
2023/01/27 15:16:20;;;;;;;7.15;5.20;;;3.20;99.90;;;;;;6226480;28;20411;-77
2023/01/27 15:19:42;;;;;;;8.85;6.22;;;3.20;99.90;;;;;;6225025;28;20341;-80
2023/01/27 15:23:05;;;;;;;8.70;5.45;;;3.20;99.90;;;;;;6232822;28;20052;-78
2023/01/27 15:26:09;;;;;;;6.63;5.40;;;3.20;99.90;;;;;;6244648;28;20053;-78
2023/01/27 15:29:13;;;;;;;6.68;5.63;;;3.20;99.90;;;;;;6251014;28;20411;-78
2023/01/27 15:32:33;;;;;;;6.80;4.97;;;3.20;99.90;;;;;;6252327;28;20499;-78
2023/01/27 15:35:37;;;;;;;10.95;4.55;;;3.20;99.90;;;;;;6242187;28;20045;-78
2023/01/27 15:38:39;;;;;;;7.30;5.53;;;3.10;99.90;;;;;;6225993;28;20045;-78
2023/01/27 15:41:52;;;;;;;8.43;7.05;;;3.10;99.90;;;;;;6228305;28;20057;-79
2023/01/27 15:45:03;;;;;;;11.30;6.30;;;3.00;99.90;;;;;;6226539;28;20427;-78
2023/01/27 15:48:10;;;;;;;7.82;6.80;;;3.00;99.90;;;;;;6225222;28;20042;-78
2023/01/27 15:51:18;;;;;;;7.97;5.45;;;3.00;99.90;;;;;;6229489;28;20041;-79
2023/01/27 15:54:24;;;;;;;8.90;6.00;;;3.00;99.90;;;;;;6235450;28;20057;-79
2023/01/27 15:57:29;;;;;;;8.55;6.72;;;3.00;99.90;;;;;;6235696;28;20046;-80
2023/01/27 16:00:34;;;;;;;7.38;6.18;;;3.00;99.90;;;;;;6227478;28;20053;-79
2023/01/27 16:03:42;;;;;;;8.63;6.10;;;2.90;99.90;;;;;;6230860;28;20180;-79
2023/01/27 16:06:47;;;;;;;8.82;6.10;;;2.90;99.90;;;;;;6231567;28;20152;-79
2023/01/27 16:09:51;;;;;;;11.95;5.78;;;3.20;99.90;;;;;;6229241;28;20585;-81
2023/01/27 16:13:14;;;;;;;9.25;5.53;;;3.50;99.90;;;;;;6227917;28;20060;-80
2023/01/27 16:16:34;;;;;;;8.57;6.03;;;3.70;99.90;;;;;;6227617;28;20523;-79
2023/01/27 16:19:43;;;;;;;13.20;7.80;;;3.80;99.90;;;;;;6225868;28;20557;-80
2023/01/27 16:22:49;;;;;;;15.93;8.05;;;3.90;99.90;;;;;;6230285;28;20049;-80
2023/01/27 16:25:59;;;;;;;11.13;8.73;;;4.50;99.90;;;;;;6242248;28;20057;-80
2023/01/27 16:29:16;;;;;;;14.77;7.80;;;5.30;99.90;;;;;;6250473;28;20041;-80
2023/01/27 16:32:21;;;;;;;10.90;8.35;;;5.80;99.90;;;;;;6246940;28;20049;-81
2023/01/27 16:35:24;;;;;;;7.93;6.35;;;6.10;99.90;;;;;;6250065;28;20048;-80
2023/01/27 16:38:28;;;;;;;9.85;6.95;;;6.00;99.90;;;;;;6251885;28;20052;-80
2023/01/27 16:41:34;;;;;;;8.10;5.82;;;5.50;99.90;;;;;;6250196;28;20046;-80
2023/01/27 16:44:40;;;;;;;37.63;22.60;;;4.90;99.90;;;;;;6250629;28;20041;-81
2023/01/27 16:47:48;;;;;;;13.88;9.13;;;4.40;99.90;;;;;;6249359;28;20049;-80
2023/01/27 16:50:52;;;;;;;16.73;12.05;;;4.10;99.90;;;;;;6250407;28;20049;-80
2023/01/27 16:53:56;;;;;;;11.70;8.48;;;3.80;99.90;;;;;;6242757;28;20057;-80